< < Back
Terminal Aerodrome Forecast


Current Version              Previous Versions:   1  2  3  4  5  6  7  8  9  

Terminal Aerodrome Forecast

554
FTUS42 KTAE 240520
TAFABY
TAF
KABY 240520Z 2406/2506 00000KT P6SM SKC
     FM241500 20005KT P6SM SKC=

Latest METAR

454
SAUS70 KWBC 242100 RRM
MTRABY
METAR KABY 242053Z 13008KT 10SM CLR 31/08 A3012 RMK AO2 SLP197 T03110078
56013


USA.gov is the U.S. government's official web portal to all federal, state and local government web resources and services.